Time;durP1;ratioP1;P1;durP2;ratioP2;P2;SDS_P1;SDS_P2;PMS_P1;PMS_P2;Temp;Humidity;BMP_temperature;BMP_pressure;BME280_temperature;BME280_humidity;BME280_pressure;Samples;Min_cycle;Max_cycle;Signal;HPM_P1;HPM_P2
2022/12/23 00:00:29;;;;;;;32.17;29.27;;;;;;;21.03;30.64;94883.84;6199829;28;103302;-62
2022/12/23 00:03:34;;;;;;;34.60;31.40;;;;;;;21.00;30.34;94879.09;6210457;28;103153;-64
2022/12/23 00:06:37;;;;;;;32.60;29.60;;;;;;;21.02;30.39;94884.16;6218882;28;107305;-67
2022/12/23 00:09:40;;;;;;;34.23;31.03;;;;;;;21.01;30.63;94885.25;6219725;28;103035;-65
2022/12/23 00:16:06;;;;;;;30.40;27.60;;;;;;;21.00;30.78;94889.75;6215433;28;103058;-65
2022/12/23 00:19:11;;;;;;;31.83;28.90;;;;;;;21.01;30.45;94887.91;6202760;28;103016;-65
2022/12/23 00:22:14;;;;;;;29.83;27.03;;;;;;;21.01;30.84;94891.34;6201526;28;103223;-64
2022/12/23 00:25:17;;;;;;;30.40;27.73;;;;;;;21.01;30.43;94903.88;6210232;28;104271;-63
2022/12/23 00:28:23;;;;;;;30.30;27.50;;;;;;;21.01;30.60;94904.66;6213543;28;104692;-64
2022/12/23 00:31:26;;;;;;;28.70;26.20;;;;;;;21.01;30.41;94901.22;6227524;28;103761;-64
2022/12/23 00:34:30;;;;;;;30.37;27.57;;;;;;;21.00;30.46;94908.38;6199092;28;103058;-65
2022/12/23 00:37:33;;;;;;;29.40;26.73;;;;;;;20.92;30.63;94893.16;6224817;28;104233;-64
2022/12/23 00:43:57;;;;;;;30.97;27.97;;;;;;;21.00;30.43;94897.72;6234570;28;103277;-65
2022/12/23 00:47:00;;;;;;;28.90;26.20;;;;;;;20.97;30.54;94893.03;6214355;28;103309;-64
2022/12/23 00:50:05;;;;;;;30.47;27.67;;;;;;;20.99;30.52;94887.41;6211193;28;104133;-64
2022/12/23 00:53:08;;;;;;;29.13;26.50;;;;;;;20.96;30.43;94891.44;6210159;28;103446;-64
2022/12/23 00:56:11;;;;;;;29.93;27.17;;;;;;;20.97;30.45;94882.38;6226488;28;103080;-64
2022/12/23 00:59:14;;;;;;;29.53;26.90;;;;;;;20.97;30.47;94887.69;6205409;28;104141;-64
2022/12/23 01:05:39;;;;;;;28.17;25.53;;;;;;;20.68;30.52;94834.94;6210751;28;103336;-64
2022/12/23 01:08:42;;;;;;;27.20;24.70;;;;;;;20.98;30.33;94860.00;6198769;27;103187;-64
2022/12/23 01:11:45;;;;;;;27.90;25.23;;;;;;;21.01;30.48;94872.72;6209580;28;103208;-64
2022/12/23 01:14:48;;;;;;;28.20;25.70;;;;;;;20.99;30.37;94882.06;6212631;28;103210;-65
2022/12/23 01:17:51;;;;;;;28.60;26.00;;;;;;;20.99;30.68;94876.75;6224433;28;103106;-64
2022/12/23 01:20:56;;;;;;;27.87;25.17;;;;;;;20.93;30.79;94871.56;6200538;28;103401;-64
2022/12/23 01:23:59;;;;;;;26.77;24.37;;;;;;;20.86;30.58;94865.91;6219044;28;103088;-65
2022/12/23 01:27:02;;;;;;;26.60;24.10;;;;;;;20.96;30.54;94869.38;6238831;28;104575;-65
2022/12/23 01:30:06;;;;;;;28.33;25.63;;;;;;;20.96;30.61;94874.72;6236645;28;104164;-64
2022/12/23 01:33:09;;;;;;;26.90;24.50;;;;;;;20.96;30.48;94885.34;6227368;28;104002;-64
2022/12/23 01:36:14;;;;;;;27.80;25.20;;;;;;;;;;6213123;28;103304;-65
2022/12/23 01:39:17;;;;;;;26.30;23.80;;;;;;;20.96;30.38;94885.34;6217129;28;103118;-64
2022/12/23 01:45:40;;;;;;;24.47;22.27;;;;;;;20.94;30.48;94872.34;6211521;28;103115;-64
2022/12/23 01:48:47;;;;;;;25.40;23.10;;;;;;;20.93;30.38;94863.59;6232338;28;104149;-65
2022/12/23 01:51:52;;;;;;;25.97;23.57;;;;;;;20.96;30.42;94861.41;6238691;28;103145;-64
2022/12/23 01:54:56;;;;;;;26.63;24.03;;;;;;;20.93;30.37;94860.94;6216355;27;104105;-63
2022/12/23 01:58:08;;;;;;;24.67;22.37;;;;;;;20.93;30.38;94860.94;6223715;28;103101;-63
2022/12/23 02:04:32;;;;;;;23.10;20.90;;;;;;;20.96;30.26;94843.56;6229522;28;103463;-63
2022/12/23 02:11:31;;;;;;;23.90;21.70;;;;;;;20.93;30.21;94839.66;6123843;28;103264;-63
2022/12/23 02:18:26;;;;;;;22.77;20.60;;;;;;;20.93;30.72;94815.72;6225421;28;103924;-63
2022/12/23 02:22:01;;;;;;;23.53;21.43;;;;;;;20.93;30.66;94815.72;6221979;28;103038;-63
2022/12/23 02:25:29;;;;;;;22.80;20.80;;;;;;;20.92;30.20;94822.13;6212003;28;103369;-63
2022/12/23 02:29:05;;;;;;;23.23;20.97;;;;;;;20.92;30.40;94810.69;6223389;27;103019;-63
2022/12/23 02:32:17;;;;;;;22.30;20.43;;;;;;;20.93;30.37;94817.59;6216701;28;104062;-63
2022/12/23 02:35:29;;;;;;;22.80;20.90;;;;;;;20.93;30.37;94821.03;6224824;28;103450;-63
2022/12/23 02:38:39;;;;;;;23.50;21.40;;;;;;;20.96;30.35;94826.81;6224645;28;103093;-63
2022/12/23 02:41:47;;;;;;;24.00;21.80;;;;;;;;;;6210179;27;103074;-63
2022/12/23 02:44:58;;;;;;;22.10;20.20;;;;;;;20.90;30.37;94815.53;6212812;28;103260;-63
2022/12/23 02:48:08;;;;;;;23.90;21.70;;;;;;;20.93;30.22;94815.72;6222094;28;103088;-63
2022/12/23 02:51:14;;;;;;;24.33;22.23;;;;;;;20.93;30.19;94823.69;6221949;28;103120;-63
2022/12/23 02:54:24;;;;;;;24.63;22.30;;;;;;;20.93;30.25;94818.38;6212835;28;105407;-63
2022/12/23 02:57:34;;;;;;;24.77;22.40;;;;;;;20.96;30.28;94824.16;6229917;28;103203;-60
2022/12/23 03:00:40;;;;;;;23.73;21.73;;;;;;;20.90;30.16;94815.53;6230203;28;103102;-61
2022/12/23 03:03:47;;;;;;;23.37;21.33;;;;;;;20.92;30.32;94814.13;6206501;27;104123;-61
2022/12/23 03:06:54;;;;;;;24.83;22.63;;;;;;;20.92;30.43;94816.78;6212460;28;103168;-60
2022/12/23 03:09:58;;;;;;;24.50;22.40;;;;;;;;;;6212410;28;103080;-60
2022/12/23 03:13:09;;;;;;;26.30;23.90;;;;;;;20.92;30.39;94832.75;6214157;28;103126;-62
2022/12/23 03:16:20;;;;;;;24.73;22.33;;;;;;;20.91;30.17;94828.53;6209020;28;104027;-61
2022/12/23 03:19:31;;;;;;;26.10;23.70;;;;;;;20.92;29.97;94827.44;6215932;28;104096;-60
2022/12/23 03:22:39;;;;;;;24.93;22.80;;;;;;;20.93;30.28;94820.25;6214737;28;103984;-60
2022/12/23 03:25:50;;;;;;;26.37;24.03;;;;;;;20.93;29.99;94823.69;6205691;28;103132;-63
2022/12/23 03:28:58;;;;;;;25.20;22.93;;;;;;;20.93;30.17;94818.38;6217063;28;103846;-60
2022/12/23 03:32:02;;;;;;;25.03;22.70;;;;;;;;;;6227835;28;103211;-60
2022/12/23 03:35:12;;;;;;;24.10;22.10;;;;;;;20.93;30.04;94818.38;6211514;28;103027;-60
2022/12/23 03:38:18;;;;;;;23.23;21.23;;;;;;;20.94;30.09;94819.16;6199607;28;103111;-61
2022/12/23 03:41:27;;;;;;;25.87;23.53;;;;;;;20.96;30.07;94818.84;6212021;28;104173;-60
2022/12/23 03:44:35;;;;;;;24.93;22.80;;;;;;;20.96;30.00;94824.16;6224162;28;104369;-61
2022/12/23 03:47:44;;;;;;;24.47;22.27;;;;;;;20.91;30.00;94814.44;6220671;28;103147;-60
2022/12/23 03:50:53;;;;;;;24.70;22.50;;;;;;;20.98;29.88;94835.28;6227466;27;104328;-60
2022/12/23 03:54:01;;;;;;;24.97;22.77;;;;;;;20.97;30.15;94828.41;6211258;28;104007;-60
2022/12/23 03:57:07;;;;;;;24.97;22.77;;;;;;;20.97;30.06;94828.41;6212343;28;104023;-59
2022/12/23 04:00:12;;;;;;;25.33;22.93;;;;;;;20.98;30.15;94835.28;6202951;28;104306;-60
2022/12/23 04:03:22;;;;;;;26.00;23.70;;;;;;;20.96;30.16;94832.16;6226552;28;103219;-61
2022/12/23 04:06:30;;;;;;;24.50;22.30;;;;;;;21.03;29.99;94821.88;6231891;28;104359;-62
2022/12/23 04:09:34;;;;;;;22.83;20.73;;;;;;;21.08;30.13;94835.06;6214936;28;103006;-62
2022/12/23 04:12:39;;;;;;;23.30;21.30;;;;;;;21.12;29.86;94834.16;6210190;27;104144;-61
2022/12/23 04:15:42;;;;;;;24.40;22.20;;;;;;;21.13;29.91;94830.41;6213376;28;103068;-61
2022/12/23 04:18:45;;;;;;;22.40;20.40;;;;;;;21.14;29.59;94834.63;6208927;28;104423;-60
2022/12/23 04:21:50;;;;;;;22.77;20.77;;;;;;;21.13;29.44;94817.09;6199907;28;104274;-61
2022/12/23 04:24:53;;;;;;;22.40;20.40;;;;;;;21.15;29.69;94833.53;6216330;27;103384;-61
2022/12/23 04:27:56;;;;;;;22.13;20.17;;;;;;;21.13;29.54;94824.31;6225017;28;103423;-62
2022/12/23 04:30:59;;;;;;;21.60;19.53;;;;;;;21.15;29.91;94830.09;6210390;28;104179;-60
2022/12/23 04:34:02;;;;;;;22.83;20.73;;;;;;;21.16;29.91;94837.00;6196500;28;103233;-60
2022/12/23 04:37:06;;;;;;;23.30;21.10;;;;;;;21.15;29.82;94830.88;6204907;28;103084;-60
2022/12/23 04:40:10;;;;;;;22.70;20.70;;;;;;;21.15;29.98;94830.09;6201323;28;103956;-61
2022/12/23 04:43:13;;;;;;;22.87;20.67;;;;;;;21.06;30.01;94806.13;6216329;28;103412;-59
2022/12/23 04:46:16;;;;;;;22.90;20.83;;;;;;;21.13;30.00;94811.00;6200377;28;103118;-61
2022/12/23 04:49:19;;;;;;;25.87;23.53;;;;;;;21.11;30.16;94819.28;6212444;28;103051;-61
2022/12/23 04:52:24;;;;;;;25.83;23.40;;;;;;;21.09;30.14;94828.66;6217637;28;103001;-62
2022/12/23 04:55:27;;;;;;;28.00;25.10;;;;;;;21.03;31.03;94833.31;6214020;28;103228;-60
2022/12/23 04:58:30;;;;;;;26.70;23.90;;;;;;;21.01;30.57;94822.19;6203184;28;104034;-60
2022/12/23 05:01:33;;;;;;;24.60;22.40;;;;;;;20.97;30.68;94812.44;6210002;28;103116;-63
2022/12/23 05:04:36;;;;;;;25.00;22.70;;;;;;;21.06;30.75;94831.94;6209011;28;103092;-63
2022/12/23 05:07:41;;;;;;;26.40;24.10;;;;;;;21.11;30.29;94842.44;6209603;28;103038;-62
2022/12/23 05:10:44;;;;;;;26.43;24.13;;;;;;;21.15;30.93;94846.84;6186095;28;104670;-63
2022/12/23 05:13:47;;;;;;;27.53;25.13;;;;;;;21.28;31.39;94850.53;6207025;28;103251;-61
2022/12/23 05:16:50;;;;;;;24.97;22.77;;;;;;;21.35;31.57;94839.47;6206507;28;102990;-62
2022/12/23 05:19:55;;;;;;;26.43;24.20;;;;;;;21.36;31.55;94835.72;6204354;28;102938;-64
2022/12/23 05:22:59;;;;;;;25.70;23.17;;;;;;;21.31;31.51;94844.59;6204768;28;104329;-63
2022/12/23 05:26:02;;;;;;;25.23;22.90;;;;;;;21.29;31.54;94846.78;6207314;28;103135;-63
2022/12/23 05:29:05;;;;;;;24.63;22.33;;;;;;;21.24;31.39;94846.91;6209684;28;104141;-63
2022/12/23 05:32:08;;;;;;;24.97;22.70;;;;;;;21.24;31.47;94862.09;6199442;28;103230;-62
2022/12/23 05:35:11;;;;;;;23.40;21.30;;;;;;;21.20;31.29;94859.25;6208594;28;104350;-63
2022/12/23 05:38:16;;;;;;;24.67;22.40;;;;;;;21.19;31.17;94865.69;6207319;28;103220;-63
2022/12/23 05:41:19;;;;;;;24.23;22.07;;;;;;;21.19;31.13;94863.81;6206397;28;103195;-64
2022/12/23 05:44:22;;;;;;;23.70;21.40;;;;;;;21.18;30.78;94864.09;6196341;28;103146;-63
2022/12/23 05:47:25;;;;;;;22.80;20.70;;;;;;;21.16;31.06;94856.41;6206851;28;103435;-63
2022/12/23 05:50:28;;;;;;;23.00;21.00;;;;;;;21.16;30.98;94856.41;6208069;28;103437;-60
2022/12/23 05:53:33;;;;;;;22.40;20.40;;;;;;;21.15;30.76;94849.50;6208689;28;104145;-61
2022/12/23 05:56:36;;;;;;;22.10;19.80;;;;;;;21.15;31.03;94852.16;6202753;28;105055;-61
2022/12/23 05:59:39;;;;;;;22.43;20.33;;;;;;;21.15;30.50;94864.69;6209459;28;103134;-61
2022/12/23 06:02:42;;;;;;;22.57;20.37;;;;;;;21.15;30.49;94868.13;6209461;28;104041;-61
2022/12/23 06:05:52;;;;;;;21.47;19.57;;;;;;;21.14;30.55;94863.91;6205559;28;103756;-61
2022/12/23 06:08:56;;;;;;;22.97;20.87;;;;;;;21.11;30.62;94853.88;6213183;28;103238;-63
2022/12/23 06:12:02;;;;;;;23.10;21.00;;;;;;;21.14;30.71;94857.78;6211855;28;103013;-60
2022/12/23 06:15:06;;;;;;;20.50;18.80;;;;;;;21.14;30.50;94868.44;6213308;28;103356;-63
2022/12/23 06:18:09;;;;;;;21.80;19.77;;;;;;;21.13;30.43;94858.88;6203304;27;103465;-62
2022/12/23 06:21:12;;;;;;;21.87;19.77;;;;;;;21.13;30.67;94858.88;6213403;28;103221;-62
2022/12/23 06:24:16;;;;;;;20.93;19.03;;;;;;;21.13;30.60;94865.00;6213372;28;103914;-63
2022/12/23 06:27:19;;;;;;;21.77;19.97;;;;;;;21.13;30.42;94872.19;6213705;28;104092;-62
2022/12/23 06:30:22;;;;;;;21.93;19.93;;;;;;;21.14;30.28;94871.09;6202896;27;103747;-63
2022/12/23 06:33:25;;;;;;;21.23;19.33;;;;;;;21.14;30.29;94873.75;6213410;28;103035;-62
2022/12/23 06:36:29;;;;;;;20.53;18.87;;;;;;;21.13;30.35;94866.88;6213437;28;104070;-62
2022/12/23 06:39:33;;;;;;;20.10;18.40;;;;;;;21.13;30.12;94858.88;6207415;28;103297;-62
2022/12/23 06:42:36;;;;;;;20.77;18.83;;;;;;;21.13;30.37;94869.53;6207188;28;104257;-62
2022/12/23 06:45:40;;;;;;;20.50;18.70;;;;;;;21.12;30.03;94871.41;6213330;28;104181;-60
2022/12/23 06:48:43;;;;;;;20.27;18.47;;;;;;;21.13;30.19;94872.19;6212433;28;103174;-60
2022/12/23 06:51:46;;;;;;;20.90;19.10;;;;;;;21.13;30.21;94864.22;6201227;28;103400;-63
2022/12/23 06:54:50;;;;;;;20.50;18.67;;;;;;;21.13;30.25;94864.22;6212463;28;103255;-62
2022/12/23 06:57:53;;;;;;;20.67;18.87;;;;;;;21.14;30.34;94877.22;6213179;28;103430;-62
2022/12/23 07:00:56;;;;;;;20.40;18.57;;;;;;;21.15;30.13;94881.44;6212346;28;104151;-62
2022/12/23 07:04:00;;;;;;;20.43;18.63;;;;;;;21.16;30.29;94872.38;6202240;27;103043;-62
2022/12/23 07:07:03;;;;;;;20.87;18.97;;;;;;;21.16;30.17;94877.69;6212801;28;104103;-62
2022/12/23 07:10:09;;;;;;;22.07;20.17;;;;;;;21.15;30.11;94878.00;6212169;28;104051;-63
2022/12/23 07:13:12;;;;;;;20.87;18.97;;;;;;;21.16;29.89;94884.88;6206666;28;103153;-61
2022/12/23 07:16:16;;;;;;;19.97;18.10;;;;;;;21.16;30.11;94883.00;6205366;28;103770;-61
2022/12/23 07:19:19;;;;;;;21.10;19.30;;;;;;;21.15;30.04;94878.78;6212329;28;103525;-60
2022/12/23 07:22:22;;;;;;;19.27;17.60;;;;;;;21.15;30.00;94883.31;6211928;28;103061;-60
2022/12/23 07:25:26;;;;;;;20.10;18.20;;;;;;;21.16;29.72;94877.69;6201460;27;104234;-61
2022/12/23 07:28:29;;;;;;;21.73;19.70;;;;;;;21.18;29.87;94885.41;6211886;28;103034;-62
2022/12/23 07:31:33;;;;;;;22.50;20.50;;;;;;;21.27;29.97;94882.78;6211218;28;103256;-63
2022/12/23 07:34:39;;;;;;;21.30;19.50;;;;;;;21.32;29.73;94888.75;6212099;28;104124;-62
2022/12/23 07:37:43;;;;;;;21.53;19.33;;;;;;;21.31;29.90;94895.16;6202132;28;104239;-62
2022/12/23 07:40:50;;;;;;;21.10;18.90;;;;;;;21.26;29.74;94889.19;6212052;28;103608;-62
2022/12/23 07:43:53;;;;;;;22.30;20.13;;;;;;;21.24;29.93;94891.38;6211008;28;102947;-61
2022/12/23 07:46:56;;;;;;;21.57;19.57;;;;;;;21.25;29.80;94893.72;6211688;28;103215;-62
2022/12/23 07:49:59;;;;;;;20.90;19.00;;;;;;;21.27;29.82;94896.06;6201003;28;104403;-60
2022/12/23 07:53:02;;;;;;;19.60;17.80;;;;;;;21.27;30.03;94896.88;6211556;28;103035;-61
2022/12/23 07:56:08;;;;;;;20.67;18.87;;;;;;;21.26;29.64;94900.63;6211762;28;104152;-62
2022/12/23 07:59:11;;;;;;;21.20;19.40;;;;;;;21.28;29.65;94903.75;6204310;28;103479;-63
2022/12/23 08:02:14;;;;;;;20.90;19.00;;;;;;;21.30;29.85;94922.09;6210181;28;104068;-64
2022/12/23 08:05:17;;;;;;;20.43;18.67;;;;;;;21.26;29.99;94905.16;6211311;28;102991;-61
2022/12/23 08:08:20;;;;;;;20.73;19.00;;;;;;;21.31;29.61;94905.81;6210923;28;102976;-62
2022/12/23 08:11:25;;;;;;;19.97;18.20;;;;;;;21.35;29.75;94912.13;6201552;28;104046;-62
2022/12/23 08:14:28;;;;;;;20.80;18.90;;;;;;;21.43;29.60;94915.91;6210700;28;103214;-61
2022/12/23 08:17:31;;;;;;;19.67;17.97;;;;;;;21.49;29.31;94914.69;6211291;28;104149;-62
2022/12/23 08:20:34;;;;;;;19.10;17.47;;;;;;;21.56;29.52;94911.59;6211026;28;103301;-61
2022/12/23 08:23:37;;;;;;;20.17;18.47;;;;;;;21.61;29.50;94911.47;6200381;28;103708;-61
2022/12/23 08:26:42;;;;;;;19.60;17.70;;;;;;;21.65;29.34;94910.53;6211143;28;107032;-61
2022/12/23 08:29:46;;;;;;;19.20;17.50;;;;;;;21.59;29.27;94897.69;6211250;28;103333;-61
2022/12/23 08:32:49;;;;;;;20.37;18.57;;;;;;;21.70;29.44;94912.31;6208683;28;102771;-62
2022/12/23 08:35:54;;;;;;;19.63;17.87;;;;;;;21.74;29.28;94910.59;6206250;28;104079;-61
2022/12/23 08:38:59;;;;;;;20.23;18.37;;;;;;;21.77;29.06;94913.44;6210394;28;103279;-61
2022/12/23 08:42:03;;;;;;;19.90;18.10;;;;;;;21.78;29.00;94907.00;6210570;28;103109;-61
2022/12/23 08:45:08;;;;;;;19.70;17.90;;;;;;;21.82;29.02;94904.53;6199924;28;104451;-62
2022/12/23 08:48:10;;;;;;;20.73;18.90;;;;;;;21.94;29.27;94901.31;6210667;28;103233;-62
2022/12/23 08:51:15;;;;;;;21.07;19.07;;;;;;;21.86;29.34;94902.84;6210823;28;102954;-62
2022/12/23 08:54:19;;;;;;;19.13;17.43;;;;;;;21.88;29.46;94900.66;6210293;28;103138;-61
2022/12/23 08:57:23;;;;;;;21.60;19.60;;;;;;;21.90;29.26;94903.81;6199977;27;105929;-62
2022/12/23 09:00:26;;;;;;;20.43;18.63;;;;;;;21.87;29.67;94893.78;6209994;28;103172;-61
2022/12/23 09:03:29;;;;;;;20.77;18.97;;;;;;;21.85;29.51;94890.63;6209796;28;103113;-61
2022/12/23 09:06:36;;;;;;;21.07;19.20;;;;;;;21.88;29.80;94899.88;6210747;28;104088;-62
2022/12/23 09:09:39;;;;;;;20.97;18.87;;;;;;;21.87;29.37;94891.09;6201803;28;102952;-61
2022/12/23 09:12:43;;;;;;;20.80;19.00;;;;;;;21.89;29.43;94896.91;6209789;28;103182;-62
2022/12/23 09:15:46;;;;;;;20.50;18.70;;;;;;;21.89;29.24;94894.25;6209341;28;104116;-61
2022/12/23 09:18:49;;;;;;;21.20;19.40;;;;;;;21.90;29.45;94895.81;6200843;27;104013;-61
2022/12/23 09:21:52;;;;;;;20.63;18.80;;;;;;;21.90;29.64;94890.50;6209047;28;103111;-61
2022/12/23 09:24:56;;;;;;;20.70;18.80;;;;;;;21.90;29.32;94887.81;6210058;28;103007;-62
2022/12/23 09:28:09;;;;;;;19.57;17.77;;;;;;;21.90;29.61;94893.16;6210358;28;102680;-61
2022/12/23 09:31:13;;;;;;;19.43;17.73;;;;;;;21.91;29.19;94894.72;6199124;28;103424;-61
2022/12/23 09:34:16;;;;;;;19.50;17.90;;;;;;;21.94;29.45;94888.00;6210426;28;104354;-61
2022/12/23 09:37:19;;;;;;;20.67;18.83;;;;;;;21.99;29.62;94885.97;6210423;28;103386;-61
2022/12/23 09:40:22;;;;;;;19.40;17.80;;;;;;;22.05;29.55;94889.28;6214200;28;103348;-62
2022/12/23 09:43:38;;;;;;;18.47;16.90;;;;;;;22.08;29.24;94894.78;6203354;28;103163;-62
2022/12/23 09:46:47;;;;;;;19.23;17.53;;;;;;;22.16;29.39;94889.78;6213198;28;103079;-62
2022/12/23 09:49:53;;;;;;;18.47;16.93;;;;;;;22.17;29.02;94883.34;6213972;28;103026;-61
2022/12/23 09:53:01;;;;;;;19.00;17.40;;;;;;;22.15;29.20;94885.53;6203824;28;103288;-64
2022/12/23 09:56:14;;;;;;;18.70;17.10;;;;;;;22.18;29.59;94884.91;6213723;28;103784;-60
2022/12/23 09:59:31;;;;;;;18.33;16.83;;;;;;;22.18;29.00;94879.59;6213184;28;103179;-60
2022/12/23 10:02:46;;;;;;;17.67;16.17;;;;;;;22.16;29.36;94884.44;6213557;28;103276;-61
2022/12/23 10:06:01;;;;;;;17.77;16.27;;;;;;;22.16;29.59;94885.22;6202934;28;103797;-62
2022/12/23 10:09:07;;;;;;;18.07;16.47;;;;;;;22.16;29.16;94874.56;6214236;28;103084;-62
2022/12/23 10:12:19;;;;;;;17.80;16.30;;;;;;;22.05;29.70;94860.75;6213119;28;103083;-62
2022/12/23 10:15:37;;;;;;;17.83;16.40;;;;;;;22.18;29.45;94884.91;6206090;28;103932;-62
2022/12/23 10:18:50;;;;;;;17.03;15.53;;;;;;;22.14;29.22;94875.97;6212287;28;104104;-62
2022/12/23 10:22:00;;;;;;;17.50;15.90;;;;;;;22.11;29.66;94862.19;6213456;28;104306;-62
2022/12/23 10:25:05;;;;;;;17.50;15.90;;;;;;;22.01;29.55;94846.50;6213125;28;103059;-62
2022/12/23 10:28:09;;;;;;;16.70;15.30;;;;;;;22.09;29.33;94869.69;6202397;28;103078;-62
2022/12/23 10:31:19;;;;;;;17.17;15.53;;;;;;;22.07;29.42;94869.22;6213035;28;103428;-62
2022/12/23 10:34:49;;;;;;;18.10;16.60;;;;;;;22.05;29.39;94855.44;6213621;28;103453;-62
2022/12/23 10:37:57;;;;;;;16.50;15.00;;;;;;;22.01;29.62;94857.16;6208088;28;103338;-63
2022/12/23 10:41:10;;;;;;;16.90;15.30;;;;;;;21.90;29.77;94839.88;6208295;28;103972;-62
2022/12/23 10:44:36;;;;;;;16.67;15.23;;;;;;;21.94;29.84;94846.16;6213514;28;102861;-62
2022/12/23 10:47:49;;;;;;;16.70;15.30;;;;;;;21.91;29.74;94841.44;6212968;28;103102;-62
2022/12/23 10:50:59;;;;;;;17.10;15.50;;;;;;;21.89;30.12;94834.84;6201578;28;104688;-63
2022/12/23 10:54:06;;;;;;;15.70;14.40;;;;;;;21.68;29.78;94805.31;6212623;28;103164;-62
2022/12/23 10:57:10;;;;;;;16.23;14.83;;;;;;;21.86;30.12;94830.94;6212671;28;103003;-62
2022/12/23 11:00:18;;;;;;;17.30;15.80;;;;;;;21.87;29.74;94824.50;6210947;28;103982;-62
2022/12/23 11:03:46;;;;;;;16.30;14.90;;;;;;;21.88;29.77;94831.41;6207259;28;103206;-62
2022/12/23 11:06:54;;;;;;;15.23;13.93;;;;;;;21.87;29.66;94826.38;6212347;28;104029;-62
2022/12/23 11:10:19;;;;;;;16.70;15.30;;;;;;;21.87;29.86;94829.84;6212837;28;105352;-62
2022/12/23 11:13:35;;;;;;;16.50;15.10;;;;;;;21.75;29.86;94806.41;6201845;28;103332;-62
2022/12/23 11:16:45;;;;;;;16.20;14.80;;;;;;;21.82;29.83;94827.28;6212403;28;103498;-62
2022/12/23 11:20:08;;;;;;;15.90;14.50;;;;;;;21.81;30.14;94823.03;6212085;28;102830;-62
2022/12/23 11:23:25;;;;;;;16.07;14.63;;;;;;;21.79;29.78;94815.34;6206812;28;103064;-61
2022/12/23 11:26:28;;;;;;;17.17;15.67;;;;;;;21.75;30.00;94806.41;6206744;28;103206;-61
2022/12/23 11:29:35;;;;;;;15.87;14.47;;;;;;;21.71;30.07;94804.69;6211712;28;103323;-61
2022/12/23 11:32:38;;;;;;;15.53;14.23;;;;;;;21.75;30.44;94817.06;6212339;28;104221;-61
2022/12/23 11:35:44;;;;;;;15.00;13.70;;;;;;;21.60;30.21;94796.19;6201274;28;103331;-61
2022/12/23 11:38:49;;;;;;;15.50;14.20;;;;;;;21.72;30.11;94824.91;6212192;28;103174;-61
2022/12/23 11:42:01;;;;;;;16.43;14.90;;;;;;;21.70;30.31;94821.75;6211866;28;103933;-62
2022/12/23 11:45:07;;;;;;;15.40;14.10;;;;;;;21.68;30.03;94824.75;6212229;28;103155;-61
2022/12/23 11:48:28;;;;;;;14.67;13.43;;;;;;;21.66;30.17;94828.78;6202168;28;103187;-62
2022/12/23 11:51:33;;;;;;;15.80;14.50;;;;;;;21.66;30.50;94829.56;6211686;28;103205;-61
2022/12/23 11:54:37;;;;;;;15.23;13.90;;;;;;;21.65;29.99;94827.22;6211328;28;102906;-61
2022/12/23 11:57:44;;;;;;;15.93;14.53;;;;;;;21.65;30.09;94829.88;6205253;28;103230;-62
2022/12/23 12:00:54;;;;;;;15.00;13.80;;;;;;;21.64;30.40;94829.09;6209112;28;103547;-61
2022/12/23 12:04:02;;;;;;;15.17;13.87;;;;;;;21.60;30.64;94812.16;6211124;28;103072;-61
2022/12/23 12:07:12;;;;;;;14.93;13.63;;;;;;;21.59;30.28;94807.16;6211847;28;104293;-61
2022/12/23 12:10:18;;;;;;;15.63;14.30;;;;;;;21.63;30.59;94816.09;6201694;28;105145;-61
2022/12/23 12:13:26;;;;;;;14.70;13.53;;;;;;;21.63;30.50;94816.09;6211692;28;104151;-61
2022/12/23 12:16:46;;;;;;;16.60;15.10;;;;;;;21.61;30.30;94812.94;6211468;28;103045;-61
2022/12/23 12:20:03;;;;;;;15.43;14.13;;;;;;;21.62;30.34;94809.19;6206741;28;104093;-62
2022/12/23 12:23:14;;;;;;;15.83;14.43;;;;;;;21.61;30.52;94812.94;6206292;28;103119;-61
2022/12/23 12:26:25;;;;;;;14.70;13.50;;;;;;;21.55;30.32;94799.00;6210095;28;103155;-62
2022/12/23 12:29:33;;;;;;;14.10;12.90;;;;;;;21.61;30.22;94799.63;6211352;28;103376;-65
2022/12/23 12:32:46;;;;;;;15.23;13.93;;;;;;;21.60;30.43;94804.16;6200315;27;103438;-62
2022/12/23 12:35:57;;;;;;;15.10;13.80;;;;;;;21.60;30.43;94800.72;6210831;28;103077;-62
2022/12/23 12:39:18;;;;;;;14.40;13.10;;;;;;;21.59;30.70;94804.47;6210576;28;103084;-61
2022/12/23 12:42:29;;;;;;;14.80;13.67;;;;;;;21.59;30.17;94799.16;6210393;28;103617;-62
2022/12/23 12:45:38;;;;;;;15.60;14.20;;;;;;;21.59;30.67;94809.81;6204234;27;103176;-62
2022/12/23 12:48:48;;;;;;;15.00;13.70;;;;;;;21.59;30.76;94807.94;6210210;28;103087;-61
2022/12/23 12:51:58;;;;;;;15.60;14.10;;;;;;;21.58;30.27;94802.91;6210674;28;103302;-60
2022/12/23 12:55:12;;;;;;;14.20;12.90;;;;;;;21.59;30.38;94801.81;6201315;28;103092;-61
2022/12/23 12:58:20;;;;;;;14.50;13.30;;;;;;;21.56;30.73;94797.13;6209722;28;104268;-61
2022/12/23 13:01:42;;;;;;;13.70;12.60;;;;;;;21.56;30.33;94800.56;6210938;28;104633;-61
2022/12/23 13:05:05;;;;;;;13.50;12.40;;;;;;;21.57;30.68;94796.03;6210494;28;103914;-61
2022/12/23 13:08:27;;;;;;;15.50;14.13;;;;;;;21.57;30.31;94793.34;6201724;28;103500;-61
2022/12/23 13:11:43;;;;;;;14.60;13.40;;;;;;;21.57;30.21;94801.34;6210205;28;103630;-64
2022/12/23 13:15:00;;;;;;;14.87;13.47;;;;;;;21.62;30.64;94799.31;6214772;28;103109;-63
2022/12/23 13:18:25;;;;;;;14.43;13.23;;;;;;;21.65;30.41;94789.94;6204260;28;103295;-63
2022/12/23 13:21:32;;;;;;;14.43;13.20;;;;;;;21.66;30.49;94786.94;6215163;28;102844;-63
2022/12/23 13:24:46;;;;;;;14.83;13.63;;;;;;;21.78;30.91;94807.69;6214933;28;103127;-63
2022/12/23 13:27:57;;;;;;;14.23;12.93;;;;;;;21.78;31.04;94797.03;6213918;28;103370;-62
2022/12/23 13:31:06;;;;;;;14.00;12.87;;;;;;;21.80;30.73;94794.84;6208393;28;103127;-62
2022/12/23 13:34:26;;;;;;;14.60;13.23;;;;;;;21.77;31.17;94782.13;6214447;28;104093;-63
2022/12/23 13:37:36;;;;;;;14.80;13.40;;;;;;;21.79;30.93;94794.03;6214431;28;102975;-62
2022/12/23 13:40:48;;;;;;;15.63;14.23;;;;;;;21.75;31.44;94787.00;6203380;28;103057;-62
2022/12/23 13:43:56;;;;;;;14.13;12.90;;;;;;;21.71;31.16;94789.50;6214281;28;103099;-61
2022/12/23 13:47:12;;;;;;;14.17;12.90;;;;;;;21.59;30.99;94768.00;6214093;28;104190;-62
2022/12/23 13:50:23;;;;;;;15.40;13.93;;;;;;;21.63;31.04;94776.13;6213829;28;103265;-62
2022/12/23 13:53:39;;;;;;;14.57;13.37;;;;;;;21.65;30.92;94785.38;6203061;27;103931;-62
2022/12/23 13:56:49;;;;;;;14.60;13.30;;;;;;;21.62;31.04;94777.22;6214017;28;102914;-62
2022/12/23 14:00:01;;;;;;;13.97;12.67;;;;;;;21.56;31.18;94779.25;6213203;28;103009;-62
2022/12/23 14:03:32;;;;;;;13.50;12.30;;;;;;;21.61;31.05;94794.31;6202846;28;104229;-62
2022/12/23 14:06:43;;;;;;;14.00;12.80;;;;;;;21.58;31.11;94784.28;6213926;28;103236;-61
2022/12/23 14:09:52;;;;;;;14.07;12.83;;;;;;;21.59;31.15;94785.84;6213797;28;103095;-61
2022/12/23 14:13:01;;;;;;;13.60;12.50;;;;;;;21.58;31.13;94790.38;6213949;28;103217;-60
2022/12/23 14:16:35;;;;;;;15.00;13.80;;;;;;;21.55;31.06;94791.00;6203749;28;103935;-61
2022/12/23 14:19:55;;;;;;;14.20;12.90;;;;;;;21.55;31.34;94796.34;6210494;28;103142;-63
2022/12/23 14:23:09;;;;;;;13.07;11.90;;;;;;;21.55;30.85;94792.88;6213382;28;104153;-63
2022/12/23 14:26:26;;;;;;;14.37;13.03;;;;;;;21.47;31.19;94778.44;6202849;28;103290;-62
2022/12/23 14:29:41;;;;;;;14.23;13.03;;;;;;;21.54;31.37;94788.66;6213297;28;104242;-63
2022/12/23 14:32:50;;;;;;;13.77;12.57;;;;;;;21.59;30.88;94785.84;6213045;28;103460;-61
2022/12/23 14:35:56;;;;;;;14.37;13.10;;;;;;;21.62;31.33;94787.88;6212908;28;103378;-61
2022/12/23 14:39:31;;;;;;;14.00;12.83;;;;;;;21.66;31.73;94791.50;6204268;28;103749;-61